Главная страница
METAR-TAF:

METAR-TAF

Аэропорты :

Doylestown Airport

Doylestown, Пенсильвания, США

широта: 40-19-48N, долгота: 075-07-21W, высота над уровнем моря: 120 м

Текущие метеонаблюдения

Эта сводка был подготовлена 39 минут назад, в 06:54 UTC
Штиль
Температура 21°C
Влажность 88%
Давление 1012 hPa
Видимость: 16.1 км
небольшая облачность на высоте 9500 фута

METAR: KDYL 170654Z AUTO 00000KT 10SM FEW095 21/19 A2987 RMK AO2 SLP109 T02110194

Время: 03:33 (07:33 UTC)


TAF: отсутствует

Метеонаблюдения и прогнозы для более 4000 аэропортов (сводки METAR и TAF).

Имеющиеся станции представлены на карте желтыми и красными точками.

Чтобы увидеть название станции, наведите на нее мышь.

Затем щелкните, чтобы увидеть метеонаблюдения и метеопрогнозы.

Управление картой: чтобы увеличить масштаб, щелкните зеленые кнопки с черным крестиком; чтобы уменьшить масштаб, щелкните зеленую кнопку с тире; для просмотра соседних карт щелкайте зеленые стрелки.


METAR-TAF: